Time;durP1;ratioP1;P1;durP2;ratioP2;P2;SDS_P1;SDS_P2;PMS_P1;PMS_P2;Temp;Humidity;BMP_temperature;BMP_pressure;BME280_temperature;BME280_humidity;BME280_pressure;Samples;Min_cycle;Max_cycle;Signal;HPM_P1;HPM_P2
2021/05/08 00:01:07;;;;;;;7.95;7.22;;;4.90;99.90;;;;;;5073840;28;20215;-87
2021/05/08 00:03:33;;;;;;;7.25;6.60;;;4.90;99.90;;;;;;5073490;28;20216;-87
2021/05/08 00:06:01;;;;;;;7.55;6.80;;;4.90;99.90;;;;;;5079914;28;20205;-88
2021/05/08 00:08:27;;;;;;;8.80;8.10;;;4.90;99.90;;;;;;5073680;28;20252;-87
2021/05/08 00:10:53;;;;;;;8.77;7.88;;;4.80;99.90;;;;;;5073718;28;20711;-86
2021/05/08 00:13:20;;;;;;;8.15;6.93;;;4.80;99.90;;;;;;5073447;28;20207;-87
2021/05/08 00:15:47;;;;;;;7.78;7.07;;;4.80;99.90;;;;;;5073427;28;20233;-87
2021/05/08 00:18:13;;;;;;;7.50;6.65;;;4.80;99.90;;;;;;5073446;28;20229;-86
2021/05/08 00:20:39;;;;;;;6.38;5.78;;;4.80;99.90;;;;;;5073430;28;20254;-88
2021/05/08 00:23:06;;;;;;;6.82;6.22;;;4.70;99.90;;;;;;5073395;28;20216;-87
2021/05/08 00:25:32;;;;;;;6.28;5.78;;;4.70;99.90;;;;;;5073529;28;20203;-87
2021/05/08 00:27:59;;;;;;;6.30;5.70;;;4.70;99.90;;;;;;5073151;28;20263;-87
2021/05/08 00:30:25;;;;;;;7.00;6.40;;;4.70;99.90;;;;;;5073456;28;20286;-87
2021/05/08 00:32:52;;;;;;;7.55;6.85;;;4.70;99.90;;;;;;5073277;28;20227;-87
2021/05/08 00:35:18;;;;;;;5.63;5.15;;;4.70;99.90;;;;;;5073196;28;20684;-88
2021/05/08 00:37:45;;;;;;;7.57;6.05;;;4.60;99.90;;;;;;5072808;28;20697;-87
2021/05/08 00:40:13;;;;;;;7.18;6.47;;;4.60;99.90;;;;;;5072291;28;20208;-87
2021/05/08 00:42:39;;;;;;;6.88;6.22;;;4.60;99.90;;;;;;5072986;28;20201;-87
2021/05/08 00:45:07;;;;;;;7.85;7.05;;;4.60;99.90;;;;;;5073174;28;20204;-87
2021/05/08 00:47:41;;;;;;;7.32;6.55;;;4.60;99.90;;;;;;5072762;28;20221;-87
2021/05/08 00:50:10;;;;;;;8.38;6.00;;;4.60;99.90;;;;;;5072908;28;20201;-87
2021/05/08 00:52:36;;;;;;;7.60;6.88;;;4.60;99.90;;;;;;5072719;28;20210;-87
2021/05/08 00:55:04;;;;;;;6.95;6.25;;;4.50;99.90;;;;;;5078598;28;20201;-89
2021/05/08 00:57:30;;;;;;;6.57;5.97;;;4.50;99.90;;;;;;5076047;28;20799;-87
2021/05/08 00:59:56;;;;;;;7.00;6.32;;;4.50;99.90;;;;;;5072781;28;20196;-89
2021/05/08 01:02:23;;;;;;;6.68;6.07;;;4.50;99.90;;;;;;5072647;28;20291;-88
2021/05/08 01:04:49;;;;;;;6.20;5.70;;;4.50;99.90;;;;;;5072950;28;20227;-87
2021/05/08 01:07:16;;;;;;;7.53;6.40;;;4.50;99.90;;;;;;5072500;28;20239;-87
2021/05/08 01:09:43;;;;;;;6.20;5.70;;;4.50;99.90;;;;;;5072627;28;20206;-88
2021/05/08 01:12:09;;;;;;;7.25;6.15;;;4.40;99.90;;;;;;5075454;28;20662;-88
2021/05/08 01:14:36;;;;;;;10.90;7.90;;;4.40;99.90;;;;;;5077674;28;20197;-87
2021/05/08 01:17:02;;;;;;;9.10;7.00;;;4.40;99.90;;;;;;5077047;28;20225;-87
2021/05/08 01:19:32;;;;;;;7.25;6.65;;;4.40;99.90;;;;;;5073760;28;20219;-88
2021/05/08 01:22:00;;;;;;;9.55;7.70;;;4.40;99.90;;;;;;5072364;28;20199;-88
2021/05/08 01:24:26;;;;;;;8.65;7.95;;;4.30;99.90;;;;;;5072116;28;20225;-87
2021/05/08 01:26:52;;;;;;;9.05;8.10;;;4.30;99.90;;;;;;5072182;28;20225;-87
2021/05/08 01:29:19;;;;;;;9.82;8.73;;;4.30;99.90;;;;;;5072052;28;20619;-88
2021/05/08 01:31:45;;;;;;;8.40;7.60;;;4.30;99.90;;;;;;5071937;28;20211;-89
2021/05/08 01:34:11;;;;;;;8.90;7.65;;;4.30;99.90;;;;;;5071985;28;20674;-88
2021/05/08 01:36:38;;;;;;;8.18;7.45;;;4.30;99.90;;;;;;5071855;28;20282;-88
2021/05/08 01:39:06;;;;;;;9.73;8.73;;;4.20;99.90;;;;;;5072113;28;20336;-87
2021/05/08 01:41:33;;;;;;;8.93;8.13;;;4.20;99.90;;;;;;5071825;28;20693;-88
2021/05/08 01:43:59;;;;;;;8.13;7.43;;;4.20;99.90;;;;;;5072262;28;20214;-87
2021/05/08 01:46:25;;;;;;;8.98;8.07;;;4.20;99.90;;;;;;5071747;28;20207;-88
2021/05/08 01:48:52;;;;;;;8.93;8.00;;;4.20;99.90;;;;;;5071676;28;20678;-87
2021/05/08 01:51:18;;;;;;;10.00;9.00;;;4.20;99.90;;;;;;5073101;28;20211;-88
2021/05/08 01:53:44;;;;;;;7.93;7.18;;;4.20;99.90;;;;;;5076043;28;20261;-87
2021/05/08 01:56:12;;;;;;;10.30;9.35;;;4.20;99.90;;;;;;5076027;28;20707;-87
2021/05/08 01:58:38;;;;;;;9.60;8.68;;;4.10;99.90;;;;;;5076056;28;20211;-87
2021/05/08 02:01:05;;;;;;;9.77;8.68;;;4.10;99.90;;;;;;5075883;28;20216;-87
2021/05/08 02:03:31;;;;;;;10.77;9.65;;;4.10;99.90;;;;;;5075754;28;20196;-88
2021/05/08 02:05:58;;;;;;;9.75;8.85;;;4.10;99.90;;;;;;5075903;28;20212;-88
2021/05/08 02:08:24;;;;;;;9.85;9.10;;;4.00;99.90;;;;;;5075537;28;20233;-88
2021/05/08 02:10:50;;;;;;;11.00;10.00;;;4.00;99.90;;;;;;5075715;28;20555;-87
2021/05/08 02:13:17;;;;;;;9.15;8.25;;;4.00;99.90;;;;;;5075437;28;20197;-87
2021/05/08 02:15:44;;;;;;;10.40;9.52;;;4.00;99.90;;;;;;5075476;28;20730;-88
2021/05/08 02:18:10;;;;;;;11.02;9.60;;;4.00;99.90;;;;;;5075721;28;20221;-88
2021/05/08 02:20:39;;;;;;;10.95;9.85;;;3.90;99.90;;;;;;5075523;28;20193;-87
2021/05/08 02:23:07;;;;;;;9.07;7.85;;;3.90;99.90;;;;;;5075607;28;20263;-87
2021/05/08 02:25:34;;;;;;;9.85;8.88;;;3.90;99.90;;;;;;5075342;28;20569;-87
2021/05/08 02:28:00;;;;;;;11.40;10.38;;;3.90;99.90;;;;;;5075175;28;20234;-87
2021/05/08 02:30:29;;;;;;;12.45;11.15;;;3.90;99.90;;;;;;5075198;28;20211;-87
2021/05/08 02:32:56;;;;;;;10.30;9.13;;;3.90;99.90;;;;;;5075195;28;20209;-87
2021/05/08 02:35:25;;;;;;;11.63;10.43;;;3.90;99.90;;;;;;5073952;28;20205;-87
2021/05/08 02:37:52;;;;;;;10.63;9.52;;;3.80;99.90;;;;;;5074414;28;20234;-87
2021/05/08 02:40:22;;;;;;;10.32;9.52;;;3.80;99.90;;;;;;5075093;28;20203;-87
2021/05/08 02:42:49;;;;;;;9.60;8.70;;;3.80;99.90;;;;;;5074972;28;20187;-87
2021/05/08 02:45:16;;;;;;;9.20;8.45;;;3.70;99.90;;;;;;5075262;28;20205;-88
2021/05/08 02:47:46;;;;;;;11.52;10.60;;;3.70;99.90;;;;;;5075068;28;20678;-88
2021/05/08 02:50:15;;;;;;;9.38;8.48;;;3.70;99.90;;;;;;5075132;28;20264;-87
2021/05/08 02:52:42;;;;;;;9.27;8.40;;;3.70;99.90;;;;;;5075130;28;20211;-87
2021/05/08 02:55:10;;;;;;;11.30;8.60;;;3.70;99.90;;;;;;5074925;28;20262;-87
2021/05/08 02:57:37;;;;;;;8.68;7.88;;;3.60;99.90;;;;;;5074594;28;20234;-87
2021/05/08 03:00:05;;;;;;;8.30;7.50;;;3.60;99.90;;;;;;5074702;28;20216;-88
2021/05/08 03:02:31;;;;;;;10.30;9.30;;;3.60;99.90;;;;;;5073448;28;20209;-87
2021/05/08 03:04:58;;;;;;;9.57;8.30;;;3.60;99.90;;;;;;5074720;28;20214;-87
2021/05/08 03:07:24;;;;;;;10.10;9.15;;;3.60;99.90;;;;;;5074628;28;20232;-87
2021/05/08 03:09:51;;;;;;;8.10;7.30;;;3.60;99.90;;;;;;5074726;28;20207;-88
2021/05/08 03:12:17;;;;;;;8.75;8.00;;;3.60;99.90;;;;;;5074317;28;20219;-87
2021/05/08 03:14:43;;;;;;;9.02;7.82;;;3.60;99.90;;;;;;5074646;28;20294;-88
2021/05/08 03:17:10;;;;;;;9.35;8.35;;;3.50;99.90;;;;;;5074528;28;20233;-88
2021/05/08 03:19:37;;;;;;;8.55;7.65;;;3.50;99.90;;;;;;5074350;28;20227;-87
2021/05/08 03:22:05;;;;;;;7.78;7.13;;;3.50;99.90;;;;;;5074226;28;20612;-88
2021/05/08 03:24:32;;;;;;;7.80;7.10;;;3.50;99.90;;;;;;5075726;28;20210;-89
2021/05/08 03:26:58;;;;;;;9.05;8.05;;;3.50;99.90;;;;;;5074413;28;20641;-88
2021/05/08 03:29:24;;;;;;;8.90;7.45;;;3.50;99.90;;;;;;5075378;28;20207;-86
2021/05/08 03:31:51;;;;;;;10.50;9.65;;;3.50;99.90;;;;;;5074673;28;20214;-87
2021/05/08 03:34:17;;;;;;;9.27;8.40;;;3.40;99.90;;;;;;5074348;28;20601;-87
2021/05/08 03:36:44;;;;;;;10.85;8.70;;;3.40;99.90;;;;;;5074134;28;20232;-87
2021/05/08 03:39:11;;;;;;;8.00;7.20;;;3.40;99.90;;;;;;5073894;28;20208;-87
2021/05/08 03:41:37;;;;;;;11.52;8.57;;;3.40;99.90;;;;;;5073710;28;20216;-87
2021/05/08 03:44:04;;;;;;;11.55;10.45;;;3.40;99.90;;;;;;5074172;28;20574;-87
2021/05/08 03:46:30;;;;;;;10.00;8.93;;;3.40;99.90;;;;;;5073967;28;20233;-88
2021/05/08 03:48:56;;;;;;;8.88;7.85;;;3.40;99.90;;;;;;5073714;28;20195;-87
2021/05/08 03:51:24;;;;;;;10.90;9.90;;;3.40;99.90;;;;;;5073861;28;20574;-88
2021/05/08 03:53:50;;;;;;;9.57;8.40;;;3.50;99.90;;;;;;5073624;28;20207;-88
2021/05/08 03:56:17;;;;;;;10.65;8.88;;;3.40;99.90;;;;;;5073551;28;20228;-87
2021/05/08 03:58:44;;;;;;;8.45;7.65;;;3.40;99.90;;;;;;5073626;28;20217;-87
2021/05/08 04:01:10;;;;;;;7.93;7.13;;;3.50;99.90;;;;;;5073803;28;20214;-88
2021/05/08 04:03:36;;;;;;;7.95;7.25;;;3.50;99.90;;;;;;5074079;28;20555;-88
2021/05/08 04:06:03;;;;;;;9.45;8.60;;;3.50;99.90;;;;;;5077222;28;20207;-87
2021/05/08 04:08:29;;;;;;;10.73;9.80;;;3.50;99.90;;;;;;5073674;28;20701;-88
2021/05/08 04:10:55;;;;;;;10.98;9.90;;;3.50;99.90;;;;;;5073575;28;20205;-87
2021/05/08 04:13:22;;;;;;;8.27;7.63;;;3.50;99.90;;;;;;5073432;28;20208;-88
2021/05/08 04:15:48;;;;;;;9.70;8.63;;;3.50;99.90;;;;;;5072952;28;20729;-88
2021/05/08 04:18:15;;;;;;;9.20;8.30;;;3.50;99.90;;;;;;5073379;28;20226;-88
2021/05/08 04:20:42;;;;;;;9.30;8.40;;;3.50;99.90;;;;;;5073567;28;20298;-88
2021/05/08 04:23:08;;;;;;;8.98;8.18;;;3.60;99.90;;;;;;5073319;28;20305;-87
2021/05/08 04:25:34;;;;;;;10.52;9.00;;;3.60;99.90;;;;;;5073200;28;20596;-88
2021/05/08 04:28:00;;;;;;;10.25;8.52;;;3.60;99.90;;;;;;5073405;28;20239;-88
2021/05/08 04:30:31;;;;;;;10.05;9.05;;;3.60;99.90;;;;;;5073346;28;20201;-88
2021/05/08 04:32:57;;;;;;;11.30;10.25;;;3.70;99.90;;;;;;5073058;28;20201;-87
2021/05/08 04:35:24;;;;;;;10.75;9.68;;;3.70;99.90;;;;;;5073231;28;20232;-87
2021/05/08 04:37:50;;;;;;;10.77;9.77;;;3.70;99.90;;;;;;5072935;28;20676;-87
2021/05/08 04:40:16;;;;;;;10.57;9.57;;;3.70;99.90;;;;;;5072960;28;20208;-88
2021/05/08 04:42:42;;;;;;;10.52;9.63;;;3.70;99.90;;;;;;5072842;28;20206;-88
2021/05/08 04:45:09;;;;;;;10.15;9.32;;;3.80;99.90;;;;;;5072884;28;20219;-88
2021/05/08 04:47:36;;;;;;;10.27;8.93;;;3.80;99.90;;;;;;5072843;28;20227;-88
2021/05/08 04:50:04;;;;;;;9.80;9.00;;;3.80;99.90;;;;;;5072455;28;20292;-87
2021/05/08 04:52:31;;;;;;;8.90;8.10;;;3.80;99.90;;;;;;5072537;28;20361;-88
2021/05/08 04:54:57;;;;;;;8.82;8.02;;;3.80;99.90;;;;;;5072633;28;20197;-88
2021/05/08 04:57:23;;;;;;;10.10;8.93;;;3.90;99.90;;;;;;5072915;28;20232;-86
2021/05/08 04:59:49;;;;;;;11.25;10.07;;;3.90;99.90;;;;;;5073352;28;20211;-86
2021/05/08 05:02:16;;;;;;;9.70;8.80;;;3.90;99.90;;;;;;5073031;28;20240;-85
2021/05/08 05:04:43;;;;;;;9.75;8.35;;;4.00;99.90;;;;;;5073047;28;20222;-86
2021/05/08 05:07:09;;;;;;;9.02;7.90;;;4.00;99.90;;;;;;5073014;28;20270;-86
2021/05/08 05:09:35;;;;;;;8.23;7.07;;;4.10;99.90;;;;;;5073083;28;20207;-86
2021/05/08 05:12:02;;;;;;;7.30;6.75;;;4.10;99.90;;;;;;5072699;28;20204;-86
2021/05/08 05:14:28;;;;;;;9.90;9.10;;;4.10;99.90;;;;;;5073003;28;20298;-86
2021/05/08 05:16:55;;;;;;;9.38;8.52;;;4.20;99.90;;;;;;5073050;28;20269;-86
2021/05/08 05:19:21;;;;;;;8.98;7.55;;;4.30;99.90;;;;;;5072793;28;20586;-86
2021/05/08 05:21:48;;;;;;;8.25;7.55;;;4.30;99.90;;;;;;5072568;28;20209;-86
2021/05/08 05:24:15;;;;;;;8.75;7.90;;;4.40;99.90;;;;;;5072961;28;20201;-86
2021/05/08 05:26:41;;;;;;;8.45;6.85;;;4.50;99.90;;;;;;5072232;28;20221;-86
2021/05/08 05:29:09;;;;;;;7.55;6.70;;;4.50;99.90;;;;;;5072778;28;20697;-86
2021/05/08 05:31:36;;;;;;;7.20;6.53;;;4.60;99.90;;;;;;5072956;28;20209;-86
2021/05/08 05:34:03;;;;;;;7.53;6.78;;;4.70;99.90;;;;;;5073023;28;20215;-86
2021/05/08 05:36:30;;;;;;;8.43;7.43;;;4.80;99.90;;;;;;5073272;28;20235;-86
2021/05/08 05:38:57;;;;;;;7.00;6.50;;;4.80;99.90;;;;;;5073315;28;20293;-86
2021/05/08 05:41:23;;;;;;;8.38;7.68;;;4.90;99.90;;;;;;5073949;28;20205;-86
2021/05/08 05:43:49;;;;;;;7.78;6.97;;;5.00;99.90;;;;;;5073135;28;20237;-86
2021/05/08 05:46:16;;;;;;;7.35;6.70;;;5.10;99.90;;;;;;5072978;28;20208;-86
2021/05/08 05:48:42;;;;;;;7.93;7.22;;;5.20;99.90;;;;;;5072752;28;20299;-86
2021/05/08 05:51:08;;;;;;;7.72;6.90;;;5.30;99.90;;;;;;5072861;28;20209;-86
2021/05/08 05:53:35;;;;;;;8.52;6.78;;;5.30;99.90;;;;;;5071927;28;20244;-86
2021/05/08 05:56:02;;;;;;;11.07;6.70;;;5.50;99.90;;;;;;5072332;28;20573;-86
2021/05/08 05:58:28;;;;;;;7.45;6.75;;;5.60;99.90;;;;;;5071955;28;20293;-86
2021/05/08 06:00:54;;;;;;;6.28;5.78;;;5.70;99.90;;;;;;5072024;28;20288;-86
2021/05/08 06:03:21;;;;;;;7.22;6.60;;;5.80;99.90;;;;;;5071982;28;20197;-86
2021/05/08 06:05:47;;;;;;;7.00;6.40;;;5.80;99.90;;;;;;5072317;28;20205;-85
2021/05/08 06:08:13;;;;;;;8.10;7.30;;;6.00;99.90;;;;;;5072169;28;20698;-86
2021/05/08 06:10:39;;;;;;;7.93;7.07;;;6.00;99.90;;;;;;5072278;28;20209;-86
2021/05/08 06:13:07;;;;;;;6.35;5.75;;;6.20;99.90;;;;;;5071734;28;20208;-86
2021/05/08 06:15:33;;;;;;;7.07;6.38;;;6.30;99.90;;;;;;5072128;28;20205;-86
2021/05/08 06:17:59;;;;;;;6.65;6.05;;;6.40;99.90;;;;;;5072199;28;20221;-86
2021/05/08 06:20:25;;;;;;;7.38;6.70;;;6.50;99.90;;;;;;5072345;28;20201;-86
2021/05/08 06:22:52;;;;;;;7.53;6.38;;;6.60;99.90;;;;;;5071897;28;20201;-86
2021/05/08 06:25:18;;;;;;;7.00;6.30;;;6.70;99.90;;;;;;5072001;28;20597;-86
2021/05/08 06:27:44;;;;;;;8.50;7.80;;;6.80;99.90;;;;;;5072291;28;20308;-85
2021/05/08 06:30:13;;;;;;;7.40;6.75;;;6.90;99.90;;;;;;5072061;28;20213;-86
2021/05/08 06:32:39;;;;;;;6.63;6.13;;;7.00;99.90;;;;;;5071764;28;20205;-86
2021/05/08 06:35:05;;;;;;;7.95;7.28;;;7.10;99.90;;;;;;5072236;28;20232;-85
2021/05/08 06:37:33;;;;;;;6.07;5.47;;;7.20;99.90;;;;;;5073601;28;20240;-86
2021/05/08 06:39:59;;;;;;;6.68;6.10;;;7.30;99.90;;;;;;5075940;28;20201;-86
2021/05/08 06:42:25;;;;;;;6.90;6.30;;;7.40;99.90;;;;;;5075211;28;20205;-86
2021/05/08 06:44:52;;;;;;;6.65;6.05;;;7.50;99.90;;;;;;5075761;28;20205;-86
2021/05/08 06:47:19;;;;;;;7.15;6.45;;;7.60;99.90;;;;;;5075357;28;20741;-86
2021/05/08 06:49:46;;;;;;;7.85;5.72;;;7.70;99.90;;;;;;5075051;28;20201;-86
2021/05/08 06:52:12;;;;;;;8.07;7.45;;;7.80;99.90;;;;;;5074917;28;20213;-86
2021/05/08 06:54:38;;;;;;;8.32;6.28;;;7.90;99.90;;;;;;5075136;28;20221;-86
2021/05/08 06:57:05;;;;;;;7.50;6.90;;;8.00;99.90;;;;;;5075082;28;20237;-85
2021/05/08 06:59:32;;;;;;;7.97;6.55;;;8.10;99.90;;;;;;5075288;28;20209;-86
2021/05/08 07:01:58;;;;;;;11.88;8.27;;;8.30;99.90;;;;;;5075084;28;20209;-86
2021/05/08 07:04:25;;;;;;;7.15;6.55;;;8.40;99.90;;;;;;5075138;28;20609;-86
2021/05/08 07:06:52;;;;;;;8.50;7.45;;;8.50;99.70;;;;;;5075010;28;20217;-86
2021/05/08 07:09:18;;;;;;;7.50;5.55;;;8.60;99.90;;;;;;5074912;28;20220;-86
2021/05/08 07:11:44;;;;;;;7.93;7.20;;;8.80;99.90;;;;;;5074603;28;20205;-86
2021/05/08 07:14:10;;;;;;;8.05;5.88;;;8.90;99.90;;;;;;5074651;28;20215;-86
2021/05/08 07:16:37;;;;;;;7.20;5.65;;;9.00;99.90;;;;;;5074810;28;20236;-85
2021/05/08 07:19:03;;;;;;;6.93;5.13;;;9.20;99.90;;;;;;5074662;28;20209;-86
2021/05/08 07:21:30;;;;;;;6.10;5.60;;;9.30;99.80;;;;;;5074369;28;20240;-86
2021/05/08 07:23:57;;;;;;;5.60;5.20;;;9.50;98.70;;;;;;5074744;28;20211;-86
2021/05/08 07:26:23;;;;;;;6.00;5.40;;;9.60;99.10;;;;;;5074346;28;20234;-85
2021/05/08 07:28:49;;;;;;;5.15;4.75;;;9.80;98.20;;;;;;5074845;28;20292;-86
2021/05/08 07:31:16;;;;;;;5.65;5.00;;;9.90;97.90;;;;;;5074682;28;20758;-85
2021/05/08 07:33:42;;;;;;;5.07;4.57;;;10.10;97.60;;;;;;5074150;28;20283;-86
2021/05/08 07:36:08;;;;;;;7.22;5.28;;;10.30;97.30;;;;;;5074374;28;20307;-86
2021/05/08 07:38:36;;;;;;;6.97;5.00;;;10.40;96.40;;;;;;5074342;28;20297;-86
2021/05/08 07:41:02;;;;;;;6.70;5.30;;;10.60;95.90;;;;;;5074619;28;20453;-86
2021/05/08 07:43:28;;;;;;;6.30;4.30;;;10.80;95.60;;;;;;5073880;28;20221;-86
2021/05/08 07:45:54;;;;;;;4.77;4.37;;;10.90;95.10;;;;;;5073938;28;20462;-86
2021/05/08 07:48:21;;;;;;;5.20;4.70;;;11.00;95.10;;;;;;5073677;28;20470;-86
2021/05/08 07:50:47;;;;;;;6.60;4.93;;;11.20;95.20;;;;;;5073778;28;20828;-86
2021/05/08 07:53:14;;;;;;;5.17;4.77;;;11.30;95.60;;;;;;5073496;28;20454;-86
2021/05/08 07:55:41;;;;;;;4.33;3.93;;;11.50;95.30;;;;;;5073916;28;20449;-86
2021/05/08 07:58:07;;;;;;;5.93;4.40;;;11.60;95.20;;;;;;5073512;28;20979;-86
2021/05/08 08:00:35;;;;;;;5.03;4.57;;;11.70;94.60;;;;;;5073802;28;20453;-86
2021/05/08 08:03:01;;;;;;;4.67;4.27;;;11.80;93.80;;;;;;5073404;28;20454;-86
2021/05/08 08:05:27;;;;;;;7.17;4.30;;;11.80;93.30;;;;;;5073571;28;20453;-86
2021/05/08 08:07:54;;;;;;;3.20;3.00;;;11.80;93.70;;;;;;5073500;28;20890;-86
2021/05/08 08:10:23;;;;;;;4.10;3.80;;;11.90;93.30;;;;;;5073668;28;20502;-88
2021/05/08 08:13:49;;;;;;;4.20;3.90;;;12.00;92.90;;;;;;5076387;28;20461;-84
2021/05/08 08:16:22;;;;;;;5.23;3.90;;;12.00;93.10;;;;;;5027599;28;20487;-83
2021/05/08 08:18:53;;;;;;;3.40;3.07;;;12.00;93.30;;;;;;5037516;28;21043;-85
2021/05/08 08:21:20;;;;;;;3.93;2.80;;;12.10;94.00;;;;;;5061666;28;20489;-82
2021/05/08 08:23:46;;;;;;;2.80;2.60;;;12.20;93.00;;;;;;5080783;28;20541;-84
2021/05/08 08:26:13;;;;;;;3.70;3.27;;;12.30;92.60;;;;;;5069572;28;20446;-84
2021/05/08 08:28:47;;;;;;;3.73;2.87;;;12.40;92.60;;;;;;5066077;28;20607;-83
2021/05/08 08:31:26;;;;;;;4.20;3.90;;;12.50;92.70;;;;;;5073663;28;20474;-85
2021/05/08 08:33:53;;;;;;;2.97;2.70;;;12.60;91.50;;;;;;5077929;28;20510;-83
2021/05/08 08:36:19;;;;;;;2.97;2.77;;;12.70;90.80;;;;;;5069123;28;20506;-83
2021/05/08 08:38:45;;;;;;;3.47;3.17;;;12.80;90.50;;;;;;5062459;28;20473;-83
2021/05/08 08:41:12;;;;;;;2.80;2.60;;;12.80;90.70;;;;;;5063010;28;20501;-83
2021/05/08 08:43:39;;;;;;;3.07;2.87;;;12.90;91.10;;;;;;5061336;28;20474;-84
2021/05/08 08:46:06;;;;;;;2.50;2.30;;;13.00;91.50;;;;;;5062491;28;20438;-83
2021/05/08 08:48:33;;;;;;;2.40;2.30;;;13.10;91.10;;;;;;5064396;28;20857;-84
2021/05/08 08:51:00;;;;;;;3.83;2.00;;;13.30;90.00;;;;;;5065352;28;20442;-83
2021/05/08 08:53:26;;;;;;;1.90;1.77;;;13.50;85.60;;;;;;5062087;28;20444;-83
2021/05/08 08:55:55;;;;;;;1.73;1.63;;;13.60;80.60;;;;;;5061471;28;20790;-83
2021/05/08 08:58:28;;;;;;;4.30;2.10;;;13.80;80.00;;;;;;5063352;28;21016;-82
2021/05/08 09:00:56;;;;;;;1.53;1.43;;;13.90;78.70;;;;;;5062369;28;20459;-84
2021/05/08 09:03:22;;;;;;;2.47;2.27;;;14.20;78.90;;;;;;5062349;28;20452;-83
2021/05/08 09:05:50;;;;;;;3.93;2.20;;;14.30;78.60;;;;;;5061958;28;20456;-83
2021/05/08 09:08:16;;;;;;;2.13;2.03;;;14.50;77.40;;;;;;5061293;28;20826;-83
2021/05/08 09:10:42;;;;;;;2.00;1.70;;;14.80;76.40;;;;;;5062840;28;20941;-83
2021/05/08 09:13:16;;;;;;;2.20;2.03;;;15.00;76.30;;;;;;5061671;28;20792;-83
2021/05/08 09:15:44;;;;;;;2.20;2.10;;;15.20;75.00;;;;;;5063006;28;20796;-83
2021/05/08 09:18:31;;;;;;;1.70;1.60;;;15.40;73.40;;;;;;5061753;28;20482;-83
2021/05/08 09:20:58;;;;;;;1.60;1.50;;;15.60;71.50;;;;;;5063164;28;20510;-83
2021/05/08 09:23:29;;;;;;;2.13;2.03;;;15.70;70.70;;;;;;5062272;28;20937;-83
2021/05/08 09:26:00;;;;;;;2.07;1.90;;;15.90;71.90;;;;;;5068107;28;20448;-84
2021/05/08 09:28:28;;;;;;;2.23;1.60;;;16.20;71.70;;;;;;5061834;28;20518;-84
2021/05/08 09:30:55;;;;;;;2.73;1.80;;;16.40;69.90;;;;;;5057108;28;20452;-83
2021/05/08 09:33:22;;;;;;;3.73;2.27;;;16.70;70.30;;;;;;5061400;28;20452;-84
2021/05/08 09:36:07;;;;;;;1.50;1.40;;;17.00;68.10;;;;;;5061293;28;20459;-84
2021/05/08 09:38:35;;;;;;;1.53;1.43;;;17.20;63.70;;;;;;5060515;28;20496;-85
2021/05/08 09:41:03;;;;;;;1.50;1.40;;;17.30;62.60;;;;;;5060311;28;20451;-84
2021/05/08 09:43:29;;;;;;;1.93;1.57;;;17.30;62.60;;;;;;5059944;28;20446;-84
2021/05/08 09:45:57;;;;;;;1.30;1.20;;;17.30;61.70;;;;;;5060493;28;20491;-84
2021/05/08 09:48:26;;;;;;;1.60;1.50;;;17.40;60.10;;;;;;5060749;28;20501;-84
2021/05/08 09:50:53;;;;;;;2.17;1.90;;;17.40;58.90;;;;;;5060221;28;20478;-82
2021/05/08 09:53:28;;;;;;;1.70;1.60;;;17.50;60.30;;;;;;5060710;28;20453;-83
2021/05/08 09:55:54;;;;;;;3.47;2.43;;;17.60;58.90;;;;;;5060445;28;20445;-84
2021/05/08 09:58:24;;;;;;;1.80;1.50;;;17.60;58.40;;;;;;5059572;28;20497;-83
2021/05/08 10:00:51;;;;;;;1.57;1.47;;;17.70;59.90;;;;;;5060767;28;20457;-84
2021/05/08 10:03:19;;;;;;;1.40;1.33;;;17.90;60.80;;;;;;5059900;28;20455;-85
2021/05/08 10:05:49;;;;;;;2.37;1.73;;;18.00;60.10;;;;;;5057731;28;20460;-83
2021/05/08 10:08:16;;;;;;;2.07;1.53;;;18.10;58.60;;;;;;5060445;28;20468;-83
2021/05/08 10:10:44;;;;;;;1.40;1.30;;;18.10;56.70;;;;;;5059255;28;20451;-84
2021/05/08 10:13:17;;;;;;;1.77;1.67;;;18.20;57.90;;;;;;5065224;28;20450;-86
2021/05/08 10:15:43;;;;;;;1.60;1.50;;;18.10;56.90;;;;;;5068176;28;20493;-83
2021/05/08 10:18:12;;;;;;;3.10;1.90;;;18.00;57.60;;;;;;5066216;28;20849;-83
2021/05/08 10:20:39;;;;;;;1.80;1.70;;;18.00;57.90;;;;;;5065842;28;21081;-85
2021/05/08 10:23:08;;;;;;;1.83;1.50;;;17.80;56.60;;;;;;5064899;28;20461;-84
2021/05/08 10:25:34;;;;;;;1.70;1.60;;;17.60;57.40;;;;;;5063444;28;20462;-84
2021/05/08 10:28:01;;;;;;;1.70;1.40;;;17.50;55.20;;;;;;5062897;28;20473;-85
2021/05/08 10:30:32;;;;;;;1.43;1.33;;;17.10;57.10;;;;;;5061688;28;20446;-84
2021/05/08 10:32:59;;;;;;;1.90;1.80;;;17.20;58.20;;;;;;5059276;28;20470;-83
2021/05/08 10:35:39;;;;;;;1.70;1.60;;;17.20;56.90;;;;;;5062588;28;20449;-85
2021/05/08 10:38:23;;;;;;;1.50;1.40;;;17.30;59.40;;;;;;5061814;28;20486;-85
2021/05/08 10:40:52;;;;;;;1.50;1.40;;;17.50;57.90;;;;;;5062940;28;20452;-85
2021/05/08 10:43:37;;;;;;;1.33;1.33;;;17.70;58.70;;;;;;5061501;28;20889;-84
2021/05/08 10:46:03;;;;;;;1.60;1.50;;;17.90;59.30;;;;;;5047774;28;20465;-83
2021/05/08 10:48:29;;;;;;;1.90;1.80;;;18.20;63.10;;;;;;5061457;28;20478;-84
2021/05/08 10:50:58;;;;;;;1.23;1.13;;;18.60;57.00;;;;;;5061503;28;20459;-85
2021/05/08 10:53:37;;;;;;;3.30;1.57;;;18.80;55.90;;;;;;5060793;28;20458;-82
2021/05/08 10:56:04;;;;;;;1.57;1.47;;;19.00;54.10;;;;;;5061284;28;20451;-83
2021/05/08 10:58:39;;;;;;;1.50;1.40;;;19.10;51.20;;;;;;5062347;28;20494;-83
2021/05/08 11:01:07;;;;;;;1.77;1.60;;;19.10;51.10;;;;;;5064514;28;20484;-83
2021/05/08 11:03:49;;;;;;;1.60;1.50;;;19.20;51.90;;;;;;5069225;28;20454;-83
2021/05/08 11:06:17;;;;;;;1.93;1.00;;;19.40;49.10;;;;;;5064403;28;20448;-82
2021/05/08 11:08:47;;;;;;;2.20;1.40;;;19.70;49.10;;;;;;5067637;28;20440;-83
2021/05/08 11:11:49;;;;;;;1.53;1.43;;;20.00;49.80;;;;;;5060425;28;20455;-83
2021/05/08 11:14:56;;;;;;;1.63;1.47;;;20.10;51.60;;;;;;5057241;28;20440;-85
2021/05/08 11:17:23;;;;;;;1.63;1.53;;;20.40;49.10;;;;;;5049658;28;20493;-84
2021/05/08 11:19:50;;;;;;;2.10;1.67;;;20.60;47.30;;;;;;5054471;28;20457;-84
2021/05/08 11:22:31;;;;;;;2.57;1.70;;;20.60;47.00;;;;;;5054101;28;20982;-83
2021/05/08 11:24:59;;;;;;;1.53;1.43;;;20.70;45.90;;;;;;5053470;28;20456;-84
2021/05/08 11:27:26;;;;;;;1.97;1.60;;;20.70;46.00;;;;;;5054190;28;20500;-84
2021/05/08 11:29:55;;;;;;;2.00;1.83;;;20.80;46.60;;;;;;5054459;28;20463;-84
2021/05/08 11:32:21;;;;;;;1.67;1.50;;;21.00;46.80;;;;;;5053957;28;20459;-84
2021/05/08 11:34:48;;;;;;;1.30;1.27;;;21.60;47.20;;;;;;5054289;28;20450;-84
2021/05/08 11:37:15;;;;;;;1.70;1.60;;;22.20;48.50;;;;;;5054051;28;20493;-84
2021/05/08 11:39:47;;;;;;;1.80;1.70;;;22.70;47.00;;;;;;5054247;28;20452;-85
2021/05/08 11:42:25;;;;;;;1.80;1.63;;;23.00;46.10;;;;;;5053916;28;20450;-85
2021/05/08 11:45:01;;;;;;;1.60;1.50;;;23.20;45.50;;;;;;5054380;28;20459;-84
2021/05/08 11:47:33;;;;;;;2.50;1.87;;;23.10;44.50;;;;;;5054374;28;20858;-84
2021/05/08 11:50:06;;;;;;;1.90;1.80;;;22.70;44.10;;;;;;5054070;28;20450;-84
2021/05/08 11:52:36;;;;;;;1.80;1.27;;;22.40;45.80;;;;;;5053345;28;20461;-84
2021/05/08 11:55:19;;;;;;;2.20;2.07;;;22.30;46.10;;;;;;5053766;28;20445;-84
2021/05/08 11:57:57;;;;;;;1.70;1.60;;;22.40;46.00;;;;;;5053439;28;20537;-84
2021/05/08 12:00:28;;;;;;;1.83;1.70;;;22.70;45.40;;;;;;5053429;28;20455;-84
2021/05/08 12:03:09;;;;;;;1.50;1.40;;;23.00;46.20;;;;;;5053641;28;20447;-85
2021/05/08 12:08:20;;;;;;;2.47;1.60;;;24.00;44.90;;;;;;5052320;28;20519;-84
2021/05/08 12:10:47;;;;;;;3.53;1.70;;;24.70;44.90;;;;;;5054095;28;21030;-84
2021/05/08 12:13:14;;;;;;;1.73;1.60;;;25.30;43.70;;;;;;5053035;28;20959;-84
2021/05/08 12:15:41;;;;;;;2.03;1.70;;;25.90;43.50;;;;;;5053151;28;20947;-84
2021/05/08 12:18:10;;;;;;;2.33;1.70;;;26.40;40.70;;;;;;5053239;28;21068;-84
2021/05/08 12:20:41;;;;;;;1.40;1.30;;;26.70;39.80;;;;;;5053480;28;20459;-84
2021/05/08 12:23:11;;;;;;;1.90;1.63;;;27.00;40.00;;;;;;5053081;28;20538;-84
2021/05/08 12:25:38;;;;;;;1.50;1.40;;;27.60;40.40;;;;;;5053071;28;20448;-84
2021/05/08 12:28:17;;;;;;;1.70;1.60;;;27.80;37.50;;;;;;5053116;28;20520;-84
2021/05/08 12:30:44;;;;;;;1.80;1.70;;;27.60;36.20;;;;;;5052765;28;20491;-84
2021/05/08 12:33:19;;;;;;;1.50;1.43;;;27.30;35.80;;;;;;5052369;28;20466;-84
2021/05/08 12:35:47;;;;;;;1.60;1.50;;;26.90;36.40;;;;;;5052849;28;20449;-83
2021/05/08 12:38:26;;;;;;;1.60;1.40;;;26.40;37.50;;;;;;5052987;28;21036;-84
2021/05/08 12:40:52;;;;;;;1.47;1.37;;;25.90;37.20;;;;;;5052799;28;20461;-84
2021/05/08 12:43:23;;;;;;;1.73;1.57;;;25.10;37.40;;;;;;5052812;28;20856;-84
2021/05/08 12:46:03;;;;;;;1.87;1.27;;;24.60;39.00;;;;;;5053120;28;20452;-84
2021/05/08 12:48:30;;;;;;;1.57;1.47;;;24.10;39.10;;;;;;5055201;28;20467;-85
2021/05/08 12:50:57;;;;;;;1.50;1.40;;;23.50;39.20;;;;;;5055246;28;20506;-84
2021/05/08 12:53:31;;;;;;;1.60;1.50;;;22.90;40.70;;;;;;5052873;28;20461;-87
2021/05/08 12:56:01;;;;;;;1.10;1.10;;;22.40;41.40;;;;;;5053664;28;20531;-85
2021/05/08 12:58:34;;;;;;;1.33;1.23;;;22.10;41.20;;;;;;5052543;28;20493;-86